Time;durP1;ratioP1;P1;durP2;ratioP2;P2;SDS_P1;SDS_P2;PMS_P1;PMS_P2;Temp;Humidity;BMP_temperature;BMP_pressure;BME280_temperature;BME280_humidity;BME280_pressure;Samples;Min_cycle;Max_cycle;Signal;HPM_P1;HPM_P2
2021/10/19 00:02:01;;;;;;;25.07;13.97;;;11.00;90.80;;;;;;5003162;28;20176;-79
2021/10/19 00:04:26;;;;;;;24.50;14.90;;;11.10;90.80;;;;;;5001952;28;20195;-78
2021/10/19 00:06:52;;;;;;;19.63;13.40;;;11.10;90.80;;;;;;5000096;28;20171;-78
2021/10/19 00:09:18;;;;;;;24.70;13.97;;;11.10;90.70;;;;;;5001037;28;20196;-79
2021/10/19 00:11:43;;;;;;;23.97;14.20;;;11.10;90.80;;;;;;4997786;28;20171;-78
2021/10/19 00:14:09;;;;;;;25.20;13.27;;;11.10;90.80;;;;;;4996020;28;20168;-78
2021/10/19 00:16:35;;;;;;;24.50;15.60;;;11.10;90.80;;;;;;4996244;28;20657;-78
2021/10/19 00:19:01;;;;;;;22.00;13.47;;;11.10;90.80;;;;;;5011053;28;20684;-79
2021/10/19 00:21:27;;;;;;;21.10;12.67;;;11.10;90.80;;;;;;4995896;28;20183;-78
2021/10/19 00:23:52;;;;;;;24.40;11.70;;;11.10;90.80;;;;;;4995600;28;20935;-77
2021/10/19 00:26:18;;;;;;;21.93;14.20;;;11.10;90.80;;;;;;4997330;28;20168;-79
2021/10/19 00:28:44;;;;;;;25.43;14.60;;;11.10;90.80;;;;;;4995817;28;20179;-78
2021/10/19 00:31:10;;;;;;;22.40;12.83;;;11.20;90.80;;;;;;4995665;28;20410;-78
2021/10/19 00:33:35;;;;;;;19.93;13.90;;;11.20;90.70;;;;;;4996625;28;20653;-79
2021/10/19 00:36:01;;;;;;;21.60;14.53;;;11.20;91.00;;;;;;4994132;28;20246;-78
2021/10/19 00:38:27;;;;;;;22.60;12.57;;;11.20;90.70;;;;;;4994500;28;20267;-79
2021/10/19 00:40:52;;;;;;;24.37;13.60;;;11.30;90.70;;;;;;4995209;28;20314;-78
2021/10/19 00:43:18;;;;;;;19.60;11.87;;;11.30;90.60;;;;;;4996614;28;20171;-79
2021/10/19 00:45:44;;;;;;;18.60;12.37;;;11.30;90.50;;;;;;4995961;28;20406;-79
2021/10/19 00:48:15;;;;;;;25.10;13.17;;;11.40;90.50;;;;;;4994732;28;20175;-79
2021/10/19 00:50:41;;;;;;;21.07;13.30;;;11.40;90.50;;;;;;4993739;28;20801;-79
2021/10/19 00:53:07;;;;;;;28.23;13.70;;;11.40;90.40;;;;;;4997512;28;20410;-78
2021/10/19 00:55:33;;;;;;;18.83;12.57;;;11.40;90.30;;;;;;4996022;28;20454;-79
2021/10/19 00:58:05;;;;;;;19.93;12.93;;;11.50;90.40;;;;;;4996981;28;20406;-79
2021/10/19 01:00:31;;;;;;;23.67;13.97;;;11.50;90.40;;;;;;4995846;28;20430;-78
2021/10/19 01:02:56;;;;;;;20.87;13.00;;;11.50;90.30;;;;;;4995582;28;21063;-78
2021/10/19 01:05:23;;;;;;;25.40;13.07;;;11.50;90.30;;;;;;4994918;28;20171;-77
2021/10/19 01:07:49;;;;;;;18.40;12.57;;;11.50;90.40;;;;;;4994482;28;20267;-79
2021/10/19 01:10:15;;;;;;;20.00;11.63;;;11.50;90.50;;;;;;4994731;28;20438;-79
2021/10/19 01:12:42;;;;;;;16.13;11.30;;;11.50;90.40;;;;;;4993732;28;20904;-78
2021/10/19 01:15:31;;;;;;;21.33;13.67;;;11.60;90.50;;;;;;4993427;28;20658;-79
2021/10/19 01:17:57;;;;;;;19.50;11.50;;;11.60;90.50;;;;;;4996550;28;20904;-80
2021/10/19 01:20:25;;;;;;;18.40;11.03;;;11.60;90.40;;;;;;4995288;28;20423;-79
2021/10/19 01:22:55;;;;;;;20.87;12.57;;;11.60;90.40;;;;;;4995642;28;20164;-79
2021/10/19 01:25:23;;;;;;;18.20;11.50;;;11.60;90.30;;;;;;4993685;28;20477;-79
2021/10/19 01:27:55;;;;;;;20.83;12.27;;;11.60;90.30;;;;;;4994299;28;20407;-77
2021/10/19 01:30:22;;;;;;;15.80;10.63;;;11.60;90.40;;;;;;4994482;28;20456;-80
2021/10/19 01:32:48;;;;;;;16.23;11.33;;;11.60;90.40;;;;;;4993063;28;20422;-80
2021/10/19 01:35:14;;;;;;;15.23;10.73;;;11.60;90.40;;;;;;4992748;28;20458;-78
2021/10/19 01:37:40;;;;;;;20.40;11.73;;;11.60;90.40;;;;;;4994198;28;20411;-78
2021/10/19 01:40:09;;;;;;;20.90;11.27;;;11.60;90.30;;;;;;4993493;28;20365;-79
2021/10/19 01:42:35;;;;;;;19.50;11.60;;;11.70;90.40;;;;;;4993668;28;20415;-78
2021/10/19 01:45:01;;;;;;;20.93;13.20;;;11.70;90.30;;;;;;4993812;28;20451;-79
2021/10/19 01:47:28;;;;;;;21.33;13.07;;;11.70;90.30;;;;;;4994359;28;20932;-79
2021/10/19 01:49:54;;;;;;;21.00;11.93;;;11.70;90.70;;;;;;4995403;28;20454;-80
2021/10/19 01:52:20;;;;;;;16.50;11.73;;;11.70;90.30;;;;;;4995291;28;20869;-79
2021/10/19 01:54:46;;;;;;;18.10;10.57;;;11.70;90.30;;;;;;4993853;28;20501;-79
2021/10/19 01:57:12;;;;;;;14.30;10.70;;;11.70;90.40;;;;;;4995075;28;20411;-79
2021/10/19 01:59:37;;;;;;;17.47;11.23;;;11.70;90.40;;;;;;4994186;28;20187;-79
2021/10/19 02:02:03;;;;;;;17.53;11.13;;;11.70;90.50;;;;;;4992979;28;20920;-79
2021/10/19 02:04:29;;;;;;;16.60;10.77;;;11.70;90.60;;;;;;4993908;28;20204;-79
2021/10/19 02:06:54;;;;;;;15.73;10.67;;;11.70;90.70;;;;;;4993353;28;20179;-79
2021/10/19 02:09:20;;;;;;;18.97;12.17;;;11.70;90.90;;;;;;4993431;28;20187;-79
2021/10/19 02:11:46;;;;;;;17.57;11.60;;;11.70;91.10;;;;;;4994611;28;20203;-79
2021/10/19 02:14:11;;;;;;;19.03;11.70;;;11.70;91.30;;;;;;4994547;28;20183;-79
2021/10/19 02:16:37;;;;;;;16.63;11.33;;;11.70;91.40;;;;;;4992900;28;20171;-78
2021/10/19 02:19:02;;;;;;;18.80;11.93;;;11.70;91.60;;;;;;4993254;28;20187;-79
2021/10/19 02:21:28;;;;;;;15.60;10.90;;;11.70;91.80;;;;;;4994244;28;20168;-78
2021/10/19 02:23:54;;;;;;;19.97;12.33;;;11.70;92.00;;;;;;4995220;28;20183;-79
2021/10/19 02:26:19;;;;;;;17.80;11.60;;;11.60;92.20;;;;;;4995578;28;20167;-78
2021/10/19 02:28:45;;;;;;;18.43;11.87;;;11.60;92.40;;;;;;5006469;28;20176;-78
2021/10/19 02:31:12;;;;;;;19.73;12.63;;;11.60;93.00;;;;;;5003446;28;20242;-78
2021/10/19 02:33:38;;;;;;;20.50;12.00;;;11.60;92.80;;;;;;4997552;28;20407;-79
2021/10/19 02:36:03;;;;;;;17.27;11.53;;;11.50;93.00;;;;;;4993580;28;20467;-79
2021/10/19 02:38:29;;;;;;;25.20;13.20;;;11.50;93.20;;;;;;4993962;28;20442;-79
2021/10/19 02:40:55;;;;;;;23.10;13.30;;;11.50;93.40;;;;;;4994482;28;20172;-79
2021/10/19 02:43:20;;;;;;;24.80;14.93;;;11.40;93.60;;;;;;4996416;28;20255;-79
2021/10/19 02:45:47;;;;;;;26.23;13.77;;;11.40;93.80;;;;;;4993741;28;20207;-79
2021/10/19 02:48:12;;;;;;;24.50;14.00;;;11.40;94.00;;;;;;4994964;28;20180;-79
2021/10/19 02:50:38;;;;;;;21.87;15.40;;;11.30;94.20;;;;;;4994382;28;20554;-79
2021/10/19 02:53:04;;;;;;;21.20;13.90;;;11.30;94.40;;;;;;4995191;28;20175;-79
2021/10/19 02:55:29;;;;;;;20.50;13.33;;;11.30;94.70;;;;;;4997183;28;20287;-79
2021/10/19 02:57:55;;;;;;;21.20;13.43;;;11.30;95.00;;;;;;4995147;28;20657;-80
2021/10/19 03:00:21;;;;;;;27.27;16.03;;;11.20;95.00;;;;;;4994047;28;20561;-79
2021/10/19 03:02:46;;;;;;;32.63;16.33;;;11.20;95.30;;;;;;4992294;28;20171;-78
2021/10/19 03:05:12;;;;;;;33.00;15.63;;;11.20;95.60;;;;;;4995623;28;20429;-78
2021/10/19 03:07:38;;;;;;;24.77;14.97;;;11.20;95.80;;;;;;4993420;28;20656;-78
2021/10/19 03:10:04;;;;;;;25.17;15.03;;;11.10;96.10;;;;;;4998555;28;20765;-79
2021/10/19 03:12:30;;;;;;;21.37;14.53;;;11.10;96.30;;;;;;4993113;28;20589;-79
2021/10/19 03:14:55;;;;;;;23.73;15.17;;;11.10;96.30;;;;;;5007706;28;20466;-80
2021/10/19 03:17:21;;;;;;;28.00;15.80;;;11.10;96.50;;;;;;4993563;28;20168;-80
2021/10/19 03:19:47;;;;;;;25.60;16.70;;;11.10;96.80;;;;;;4994974;28;20549;-80
2021/10/19 03:22:13;;;;;;;27.30;16.10;;;11.10;97.00;;;;;;4993511;28;20626;-79
2021/10/19 03:24:38;;;;;;;24.10;15.40;;;11.10;97.10;;;;;;4994738;28;20641;-79
2021/10/19 03:27:04;;;;;;;25.10;16.30;;;11.10;97.20;;;;;;4994671;28;20195;-79
2021/10/19 03:29:30;;;;;;;28.33;14.87;;;11.10;97.80;;;;;;4994673;28;20266;-80
2021/10/19 03:31:56;;;;;;;23.87;15.40;;;11.10;97.50;;;;;;4994047;28;20226;-79
2021/10/19 03:34:21;;;;;;;23.53;15.80;;;11.10;97.70;;;;;;4992927;28;20455;-79
2021/10/19 03:36:47;;;;;;;23.30;14.90;;;11.10;97.70;;;;;;4994115;28;20172;-79
2021/10/19 03:39:13;;;;;;;22.17;14.77;;;11.10;97.70;;;;;;4993881;28;20618;-79
2021/10/19 03:41:39;;;;;;;22.77;14.90;;;11.20;97.80;;;;;;4991114;28;20195;-79
2021/10/19 03:44:04;;;;;;;22.23;15.17;;;11.20;97.80;;;;;;4991710;28;20804;-79
2021/10/19 03:46:30;;;;;;;26.27;16.77;;;11.20;97.90;;;;;;4992548;28;20171;-78
2021/10/19 03:48:55;;;;;;;23.73;15.83;;;11.20;97.90;;;;;;4991940;28;20187;-78
2021/10/19 03:51:21;;;;;;;29.10;15.33;;;11.20;98.00;;;;;;4992477;28;20176;-79
2021/10/19 03:53:47;;;;;;;25.47;15.17;;;11.20;98.00;;;;;;4993977;28;20681;-79
2021/10/19 03:56:13;;;;;;;21.53;15.20;;;11.30;98.10;;;;;;5011068;28;20219;-79
2021/10/19 03:58:39;;;;;;;23.73;15.63;;;11.30;98.10;;;;;;4996681;28;20446;-79
2021/10/19 04:01:05;;;;;;;26.40;15.80;;;11.30;98.20;;;;;;4996063;28;20179;-79
2021/10/19 04:03:30;;;;;;;23.30;15.53;;;11.30;98.20;;;;;;4996773;28;20175;-78
2021/10/19 04:05:56;;;;;;;27.40;16.10;;;11.30;98.50;;;;;;4996947;28;20703;-78
2021/10/19 04:08:21;;;;;;;28.70;17.07;;;11.30;98.60;;;;;;4996253;28;20199;-78
2021/10/19 04:10:47;;;;;;;25.57;14.93;;;11.30;98.70;;;;;;4996304;28;20239;-78
2021/10/19 04:13:13;;;;;;;27.33;16.40;;;11.30;98.80;;;;;;4996000;28;20168;-78
2021/10/19 04:15:38;;;;;;;25.93;16.00;;;11.30;99.00;;;;;;4995281;28;20200;-79
2021/10/19 04:18:04;;;;;;;25.90;15.87;;;11.40;99.10;;;;;;4997064;28;20252;-79
2021/10/19 04:20:30;;;;;;;24.77;16.73;;;11.40;99.20;;;;;;4997252;28;20180;-79
2021/10/19 04:22:55;;;;;;;27.97;17.50;;;11.40;99.20;;;;;;4995247;28;20258;-78
2021/10/19 04:25:21;;;;;;;31.93;16.43;;;11.40;99.40;;;;;;5004221;28;20642;-78
2021/10/19 04:27:47;;;;;;;28.37;17.17;;;11.40;99.50;;;;;;4998814;28;20330;-79
2021/10/19 04:30:13;;;;;;;31.40;18.10;;;11.40;99.60;;;;;;4995458;28;20199;-79
2021/10/19 04:32:38;;;;;;;30.30;16.90;;;11.40;99.70;;;;;;4995316;28;20237;-78
2021/10/19 04:35:04;;;;;;;29.07;18.50;;;11.40;99.80;;;;;;4995746;28;20569;-78
2021/10/19 04:37:30;;;;;;;32.47;17.13;;;11.40;99.80;;;;;;4993956;28;20171;-79
2021/10/19 04:39:56;;;;;;;31.07;18.27;;;11.40;99.90;;;;;;4996411;28;20968;-80
2021/10/19 04:42:21;;;;;;;26.07;16.20;;;11.40;99.90;;;;;;4997694;28;20164;-79
2021/10/19 04:44:48;;;;;;;28.77;17.00;;;11.40;99.90;;;;;;4998267;28;20168;-79
2021/10/19 04:47:15;;;;;;;28.93;17.50;;;11.40;99.90;;;;;;4997785;28;20178;-80
2021/10/19 04:49:41;;;;;;;26.60;17.43;;;11.40;99.90;;;;;;5002564;28;20438;-80
2021/10/19 04:52:06;;;;;;;27.07;18.20;;;11.40;99.90;;;;;;5004245;28;20920;-79
2021/10/19 04:54:32;;;;;;;31.53;16.93;;;11.40;99.90;;;;;;4995789;28;20282;-79
2021/10/19 04:56:58;;;;;;;28.33;16.60;;;11.40;99.90;;;;;;4999567;28;20226;-78
2021/10/19 04:59:23;;;;;;;29.77;17.37;;;11.40;99.90;;;;;;5002590;28;20199;-78
2021/10/19 05:01:49;;;;;;;26.67;17.47;;;11.40;99.90;;;;;;5002425;28;20499;-79
2021/10/19 05:04:15;;;;;;;33.00;17.00;;;11.40;99.90;;;;;;4996732;28;20187;-79
2021/10/19 05:06:44;;;;;;;28.93;17.07;;;11.40;99.90;;;;;;4996240;28;20195;-80
2021/10/19 05:09:12;;;;;;;26.50;16.13;;;11.40;99.90;;;;;;4997254;28;20466;-80
2021/10/19 05:11:38;;;;;;;35.63;17.27;;;11.40;99.90;;;;;;4995792;28;21015;-80
2021/10/19 05:14:03;;;;;;;31.87;18.13;;;11.40;99.90;;;;;;4996921;28;20165;-80
2021/10/19 05:16:29;;;;;;;32.00;17.60;;;11.40;99.90;;;;;;4998700;28;20200;-79
2021/10/19 05:18:55;;;;;;;29.20;17.00;;;11.40;99.90;;;;;;5005165;28;20188;-80
2021/10/19 05:21:20;;;;;;;30.10;17.93;;;11.50;99.90;;;;;;4995529;28;20175;-80
2021/10/19 05:23:46;;;;;;;29.23;16.80;;;11.50;99.90;;;;;;4995438;28;20160;-79
2021/10/19 05:26:13;;;;;;;28.30;16.47;;;11.50;99.90;;;;;;4995798;28;20610;-79
2021/10/19 05:28:39;;;;;;;32.17;16.60;;;11.50;99.90;;;;;;4996808;28;20171;-79
2021/10/19 05:31:05;;;;;;;30.90;16.30;;;11.50;99.90;;;;;;4997223;28;20950;-80
2021/10/19 05:33:30;;;;;;;30.63;16.77;;;11.50;99.90;;;;;;4997022;28;20434;-80
2021/10/19 05:35:56;;;;;;;29.03;16.80;;;11.50;99.90;;;;;;4993309;28;20583;-80
2021/10/19 05:38:22;;;;;;;31.03;16.80;;;11.50;99.90;;;;;;4992100;28;20175;-79
2021/10/19 05:40:47;;;;;;;29.00;16.80;;;11.50;99.90;;;;;;4979996;28;20279;-79
2021/10/19 05:43:13;;;;;;;28.20;17.47;;;11.60;99.90;;;;;;4990751;28;20715;-79
2021/10/19 05:45:39;;;;;;;24.93;15.80;;;11.60;99.90;;;;;;4996852;28;20289;-79
2021/10/19 05:48:07;;;;;;;25.03;15.10;;;11.60;99.90;;;;;;4995978;28;20266;-79
2021/10/19 05:50:33;;;;;;;25.90;16.43;;;11.60;99.90;;;;;;4994980;28;20211;-80
2021/10/19 05:52:59;;;;;;;31.00;16.90;;;11.60;99.90;;;;;;4994657;28;20924;-79
2021/10/19 05:55:25;;;;;;;24.40;15.50;;;11.60;99.90;;;;;;4994887;28;20450;-79
2021/10/19 05:57:50;;;;;;;25.10;15.73;;;11.60;99.90;;;;;;4995540;28;20413;-79
2021/10/19 06:00:16;;;;;;;30.67;15.70;;;11.60;99.90;;;;;;4994718;28;20179;-79
2021/10/19 06:02:42;;;;;;;30.20;16.73;;;11.60;99.90;;;;;;4995332;28;20174;-79
2021/10/19 06:05:08;;;;;;;32.60;16.17;;;11.60;99.90;;;;;;4998664;28;20176;-80
2021/10/19 06:07:34;;;;;;;34.47;17.60;;;11.60;99.90;;;;;;5006878;28;20438;-80
2021/10/19 06:10:00;;;;;;;25.70;15.17;;;11.60;99.90;;;;;;5005541;28;20207;-80
2021/10/19 06:12:27;;;;;;;27.60;16.37;;;11.60;99.90;;;;;;4999857;28;20168;-78
2021/10/19 06:14:53;;;;;;;24.60;16.03;;;11.70;99.90;;;;;;4992317;28;20462;-77
2021/10/19 06:17:18;;;;;;;27.17;15.30;;;11.70;99.90;;;;;;4992493;28;20437;-77
2021/10/19 06:19:44;;;;;;;23.37;15.57;;;11.70;99.90;;;;;;4990947;28;20187;-77
2021/10/19 06:22:10;;;;;;;24.40;15.13;;;11.70;99.90;;;;;;4991218;28;20196;-78
2021/10/19 06:24:35;;;;;;;25.20;14.70;;;11.70;99.90;;;;;;4990891;28;20234;-77
2021/10/19 06:27:01;;;;;;;23.50;13.30;;;11.70;99.90;;;;;;4990679;28;20226;-78
2021/10/19 06:29:29;;;;;;;25.47;13.50;;;11.70;99.90;;;;;;4991410;28;20227;-77
2021/10/19 06:31:55;;;;;;;25.47;16.00;;;11.80;99.90;;;;;;4989747;28;20267;-77
2021/10/19 06:34:21;;;;;;;20.23;14.33;;;11.80;99.90;;;;;;4990394;28;20422;-78
2021/10/19 06:36:46;;;;;;;25.70;13.37;;;11.80;99.90;;;;;;4992424;28;20407;-77
2021/10/19 06:39:12;;;;;;;19.67;13.47;;;11.80;99.90;;;;;;4991597;28;20735;-77
2021/10/19 06:41:37;;;;;;;20.27;11.70;;;11.90;99.90;;;;;;4991341;28;20182;-78
2021/10/19 06:44:03;;;;;;;20.10;13.80;;;11.90;99.90;;;;;;4990924;28;20630;-78
2021/10/19 06:46:29;;;;;;;22.10;12.53;;;11.90;99.90;;;;;;4985595;28;20459;-77
2021/10/19 06:48:55;;;;;;;20.57;12.80;;;11.90;99.90;;;;;;4988788;28;20443;-76
2021/10/19 06:51:21;;;;;;;17.90;12.33;;;11.90;99.90;;;;;;4991135;28;20176;-77
2021/10/19 06:53:46;;;;;;;19.83;12.23;;;12.00;99.90;;;;;;4990236;28;20172;-77
2021/10/19 06:56:12;;;;;;;15.77;10.60;;;12.00;99.90;;;;;;4991640;28;20696;-78
2021/10/19 06:58:37;;;;;;;23.57;12.40;;;12.00;99.90;;;;;;4992179;28;20187;-78
2021/10/19 07:01:05;;;;;;;18.77;11.90;;;12.10;99.90;;;;;;4992774;28;20172;-77
2021/10/19 07:03:32;;;;;;;18.63;10.63;;;12.10;99.90;;;;;;4995516;28;20211;-78
2021/10/19 07:06:02;;;;;;;16.93;10.87;;;12.10;99.90;;;;;;4993400;28;20442;-77
2021/10/19 07:08:29;;;;;;;14.50;9.90;;;12.20;99.90;;;;;;4989986;28;20434;-77
2021/10/19 07:10:55;;;;;;;14.07;10.30;;;12.20;99.90;;;;;;4992157;28;20410;-77
2021/10/19 07:13:24;;;;;;;15.40;9.97;;;12.20;99.90;;;;;;4991828;28;20415;-78
2021/10/19 07:15:55;;;;;;;13.60;9.90;;;12.30;99.90;;;;;;4971343;28;20571;-77
2021/10/19 07:18:22;;;;;;;14.40;9.27;;;12.30;99.90;;;;;;4980237;28;20976;-77
2021/10/19 07:20:49;;;;;;;12.60;8.60;;;12.40;99.90;;;;;;4992069;28;20730;-77
2021/10/19 07:23:15;;;;;;;14.13;9.07;;;12.40;99.90;;;;;;4992138;28;20729;-77
2021/10/19 07:25:42;;;;;;;12.23;9.10;;;12.40;99.90;;;;;;4971983;28;21005;-77
2021/10/19 07:28:08;;;;;;;14.50;8.27;;;12.50;99.90;;;;;;4990822;28;20554;-78
2021/10/19 07:30:33;;;;;;;11.63;8.53;;;12.50;99.90;;;;;;4982338;28;20203;-77
2021/10/19 07:32:59;;;;;;;11.90;7.43;;;12.50;99.90;;;;;;4995440;28;20180;-78
2021/10/19 07:35:25;;;;;;;10.67;8.00;;;12.50;99.90;;;;;;4994438;28;20254;-77
2021/10/19 07:37:50;;;;;;;13.37;8.53;;;12.60;99.90;;;;;;4995566;28;20167;-77
2021/10/19 07:40:19;;;;;;;11.80;8.07;;;12.60;99.90;;;;;;4996255;28;20565;-78
2021/10/19 07:42:44;;;;;;;11.97;8.17;;;12.60;99.90;;;;;;4976464;28;20188;-76
2021/10/19 07:45:11;;;;;;;8.73;7.10;;;12.60;99.90;;;;;;4977984;28;20443;-76
2021/10/19 07:47:42;;;;;;;9.73;7.43;;;12.60;99.90;;;;;;4976469;28;20725;-77
2021/10/19 07:50:12;;;;;;;9.37;7.27;;;12.60;99.90;;;;;;5018508;23;20485;-80
2021/10/19 07:52:38;;;;;;;10.40;6.40;;;12.70;99.90;;;;;;5019861;28;20422;-80
2021/10/19 07:55:05;;;;;;;7.60;6.53;;;12.70;99.90;;;;;;5022120;28;20958;-79
2021/10/19 07:57:31;;;;;;;8.53;6.33;;;12.70;99.90;;;;;;5025724;28;20460;-80
2021/10/19 07:59:58;;;;;;;10.70;7.23;;;12.70;99.90;;;;;;5026697;28;20448;-82
2021/10/19 08:02:23;;;;;;;11.43;6.80;;;12.70;99.90;;;;;;5027041;28;20414;-81
2021/10/19 08:04:49;;;;;;;8.23;5.53;;;12.80;99.90;;;;;;5026521;28;20239;-76
2021/10/19 08:07:15;;;;;;;12.03;5.57;;;12.80;99.90;;;;;;5026076;28;20171;-79
2021/10/19 08:09:41;;;;;;;7.43;6.10;;;12.80;99.90;;;;;;5026176;28;20213;-81
2021/10/19 08:12:07;;;;;;;10.20;6.23;;;12.80;99.90;;;;;;5026059;28;20637;-81
2021/10/19 08:14:33;;;;;;;9.73;6.40;;;12.80;99.90;;;;;;5026576;28;20465;-81
2021/10/19 08:16:58;;;;;;;8.97;6.20;;;12.80;99.90;;;;;;5024603;28;20172;-79
2021/10/19 08:19:24;;;;;;;7.20;6.50;;;12.80;99.90;;;;;;5027164;28;20604;-79
2021/10/19 08:21:49;;;;;;;8.20;5.70;;;12.80;99.90;;;;;;5019513;28;20671;-79
2021/10/19 08:24:15;;;;;;;8.40;6.63;;;12.90;99.90;;;;;;5005741;28;20160;-80
2021/10/19 08:26:41;;;;;;;7.67;5.90;;;12.90;99.90;;;;;;5003203;28;20182;-81
2021/10/19 08:29:07;;;;;;;8.93;7.07;;;12.90;99.90;;;;;;5011735;28;20596;-78
2021/10/19 08:31:32;;;;;;;8.37;5.40;;;13.00;99.90;;;;;;5007161;28;20198;-79
2021/10/19 08:33:58;;;;;;;10.07;5.40;;;13.00;99.90;;;;;;5028543;28;20160;-76
2021/10/19 08:36:25;;;;;;;8.10;5.30;;;13.00;99.90;;;;;;5025266;28;20290;-77
2021/10/19 08:38:51;;;;;;;9.63;5.07;;;13.10;99.90;;;;;;5034708;28;20508;-76
2021/10/19 08:41:18;;;;;;;6.90;4.93;;;13.10;99.90;;;;;;5030997;28;20464;-79
2021/10/19 08:43:46;;;;;;;5.93;5.20;;;13.10;99.90;;;;;;5012080;28;20619;-78
2021/10/19 08:46:15;;;;;;;9.60;6.10;;;13.20;99.90;;;;;;5024186;28;20414;-80
2021/10/19 08:48:41;;;;;;;6.50;4.40;;;13.20;99.90;;;;;;5021750;28;20429;-79
2021/10/19 08:51:10;;;;;;;10.50;5.90;;;13.20;99.90;;;;;;5020256;28;20604;-79
2021/10/19 08:53:38;;;;;;;7.07;5.10;;;13.30;99.90;;;;;;5021915;28;20509;-81
2021/10/19 08:56:05;;;;;;;5.83;4.80;;;13.30;99.90;;;;;;5021259;28;20473;-81
2021/10/19 08:58:32;;;;;;;6.80;4.77;;;13.40;99.90;;;;;;5026865;28;20410;-77
2021/10/19 09:01:10;;;;;;;29.80;19.20;;;13.50;99.90;;;;;;5009380;28;20477;-77
2021/10/19 09:03:50;;;;;;;7.63;5.20;;;13.60;99.90;;;;;;5007906;28;20418;-77
2021/10/19 09:06:17;;;;;;;5.60;4.97;;;13.80;99.90;;;;;;5008392;28;20422;-77
2021/10/19 09:08:48;;;;;;;13.50;4.80;;;13.90;99.90;;;;;;5021538;28;20779;-77
2021/10/19 09:11:14;;;;;;;7.63;5.43;;;13.90;99.90;;;;;;5019888;28;20473;-76
2021/10/19 09:13:51;;;;;;;6.57;4.20;;;14.00;99.90;;;;;;5028264;28;20406;-75
2021/10/19 09:16:17;;;;;;;5.83;3.80;;;14.00;99.70;;;;;;5033488;28;20507;-77
2021/10/19 09:18:45;;;;;;;8.53;4.30;;;14.00;99.60;;;;;;5028711;28;20434;-75
2021/10/19 09:21:11;;;;;;;6.17;4.17;;;14.00;99.60;;;;;;5030974;28;20249;-76
2021/10/19 09:23:37;;;;;;;11.20;5.10;;;13.90;99.50;;;;;;5031337;28;20714;-75
2021/10/19 09:26:03;;;;;;;5.30;4.10;;;14.00;99.60;;;;;;5030555;28;20683;-76
2021/10/19 09:28:35;;;;;;;6.07;4.17;;;14.00;99.60;;;;;;5007643;28;20174;-77
2021/10/19 09:31:01;;;;;;;6.60;4.67;;;14.00;99.60;;;;;;5022330;28;20452;-78
2021/10/19 09:33:26;;;;;;;4.40;3.30;;;14.10;99.60;;;;;;5024177;28;20410;-76
2021/10/19 09:35:55;;;;;;;4.57;4.10;;;14.10;99.50;;;;;;5024936;28;20218;-78
2021/10/19 09:38:23;;;;;;;9.70;4.20;;;14.20;99.50;;;;;;5023581;28;20482;-78
2021/10/19 09:40:51;;;;;;;10.73;3.63;;;14.20;99.50;;;;;;5022075;28;20444;-77
2021/10/19 09:43:19;;;;;;;4.37;3.33;;;14.20;99.50;;;;;;5023275;28;20436;-77
2021/10/19 09:45:49;;;;;;;4.00;3.17;;;14.30;99.70;;;;;;5023195;28;20406;-75
2021/10/19 09:48:22;;;;;;;4.70;3.27;;;14.30;99.50;;;;;;5026826;28;20470;-77
2021/10/19 09:51:02;;;;;;;10.43;7.57;;;14.30;99.40;;;;;;5006846;28;20454;-77
2021/10/19 09:53:29;;;;;;;4.10;3.40;;;14.20;99.50;;;;;;5000999;28;20481;-78
2021/10/19 09:55:56;;;;;;;5.80;3.70;;;14.30;99.70;;;;;;5004077;28;20458;-76
2021/10/19 09:58:24;;;;;;;5.37;3.83;;;14.30;99.80;;;;;;5013801;28;20419;-77
2021/10/19 10:00:51;;;;;;;8.50;6.63;;;14.30;99.80;;;;;;5013623;28;20460;-77
2021/10/19 10:03:17;;;;;;;6.83;4.40;;;14.30;99.90;;;;;;5024253;28;20506;-77
2021/10/19 10:05:43;;;;;;;5.07;3.53;;;14.30;99.90;;;;;;5020081;28;20879;-77
2021/10/19 10:08:17;;;;;;;3.63;3.30;;;14.40;99.90;;;;;;5024364;28;20902;-78
2021/10/19 10:10:43;;;;;;;4.30;2.97;;;14.50;99.90;;;;;;5023605;28;20478;-76
2021/10/19 10:13:19;;;;;;;4.80;3.80;;;14.50;99.90;;;;;;5026052;28;20418;-81
2021/10/19 10:15:45;;;;;;;5.00;3.20;;;14.50;99.70;;;;;;5032305;28;20505;-77
2021/10/19 10:18:12;;;;;;;5.80;4.10;;;14.60;99.80;;;;;;5031352;28;20429;-77
2021/10/19 10:20:49;;;;;;;5.47;3.80;;;14.60;99.70;;;;;;5027861;28;20441;-78
2021/10/19 10:23:26;;;;;;;5.20;3.73;;;14.60;99.80;;;;;;5029039;28;20449;-77
2021/10/19 10:25:57;;;;;;;8.10;4.83;;;14.50;99.80;;;;;;5024826;28;20854;-77
2021/10/19 10:28:31;;;;;;;6.67;4.30;;;14.60;99.90;;;;;;5026279;28;20530;-80
2021/10/19 10:31:02;;;;;;;6.70;4.10;;;14.50;99.90;;;;;;5022621;28;20443;-77
2021/10/19 10:33:35;;;;;;;4.60;3.93;;;14.50;99.90;;;;;;5014039;28;20417;-77
2021/10/19 10:36:05;;;;;;;5.50;3.70;;;14.50;99.90;;;;;;5022819;28;20446;-78
2021/10/19 10:38:31;;;;;;;7.00;4.00;;;14.50;99.90;;;;;;5014448;28;20418;-77
2021/10/19 10:41:11;;;;;;;20.50;13.73;;;14.50;99.90;;;;;;5026657;28;20449;-77
2021/10/19 10:43:38;;;;;;;9.33;5.67;;;14.40;99.90;;;;;;5026341;28;20468;-77
2021/10/19 10:46:14;;;;;;;5.37;4.57;;;14.40;99.90;;;;;;5023210;28;20502;-78
2021/10/19 10:48:41;;;;;;;4.93;4.17;;;14.40;99.90;;;;;;5019215;28;20418;-75
2021/10/19 10:51:08;;;;;;;35.53;18.90;;;14.40;99.90;;;;;;5010120;28;20454;-77
2021/10/19 10:53:36;;;;;;;6.07;4.67;;;14.40;99.90;;;;;;5020612;28;20421;-77
2021/10/19 10:56:03;;;;;;;6.50;4.80;;;14.50;99.90;;;;;;5028587;28;20493;-76
2021/10/19 10:58:35;;;;;;;6.53;4.80;;;14.50;99.90;;;;;;5021131;28;20513;-77
2021/10/19 11:01:14;;;;;;;5.40;4.13;;;14.50;99.90;;;;;;5003799;28;20455;-77
2021/10/19 11:03:44;;;;;;;8.03;5.30;;;14.50;99.90;;;;;;5007886;28;20940;-78
2021/10/19 11:06:13;;;;;;;5.60;4.20;;;14.50;99.90;;;;;;5019497;28;20422;-78
2021/10/19 11:08:39;;;;;;;5.93;4.87;;;14.50;99.90;;;;;;5031320;28;20468;-76
2021/10/19 11:11:11;;;;;;;6.47;5.00;;;14.50;99.90;;;;;;5034649;28;20431;-75
2021/10/19 11:13:54;;;;;;;6.30;4.97;;;14.50;99.90;;;;;;5031890;28;20559;-75
2021/10/19 11:16:33;;;;;;;6.30;4.43;;;14.60;99.90;;;;;;5031339;28;20457;-76
2021/10/19 11:19:01;;;;;;;27.53;17.47;;;14.70;99.90;;;;;;5032245;28;20436;-77
2021/10/19 11:21:27;;;;;;;8.00;5.23;;;14.60;99.90;;;;;;5032171;28;20508;-78
2021/10/19 11:23:55;;;;;;;5.20;4.70;;;14.70;99.90;;;;;;5026203;28;20775;-76
2021/10/19 11:26:20;;;;;;;6.47;5.10;;;14.70;99.90;;;;;;5027894;28;20410;-77
2021/10/19 11:28:57;;;;;;;299.23;139.20;;;14.70;99.90;;;;;;5029353;28;20479;-77
2021/10/19 11:31:25;;;;;;;8.00;5.73;;;14.80;99.90;;;;;;5029336;28;20195;-78
2021/10/19 11:33:51;;;;;;;8.80;5.37;;;14.90;99.90;;;;;;5031536;28;20406;-77
2021/10/19 11:36:17;;;;;;;4.70;3.97;;;15.00;99.90;;;;;;5030877;28;20486;-79
2021/10/19 11:38:46;;;;;;;8.43;5.87;;;15.10;99.90;;;;;;5034693;28;20414;-78
2021/10/19 11:41:14;;;;;;;28.27;17.20;;;15.20;99.90;;;;;;5035421;28;20514;-76
2021/10/19 11:43:42;;;;;;;6.50;5.00;;;15.30;99.90;;;;;;5027113;28;20442;-78
2021/10/19 11:46:09;;;;;;;9.97;8.30;;;15.40;99.90;;;;;;5026081;28;20504;-77
2021/10/19 11:48:36;;;;;;;6.70;4.80;;;15.60;99.90;;;;;;5027474;28;20762;-79
2021/10/19 11:51:03;;;;;;;6.63;4.27;;;15.70;99.90;;;;;;5024468;28;20458;-78
2021/10/19 11:53:29;;;;;;;6.50;4.87;;;15.80;99.90;;;;;;5027682;28;20387;-79
2021/10/19 11:55:55;;;;;;;7.13;4.93;;;15.90;99.80;;;;;;5029254;28;20460;-78
2021/10/19 11:58:27;;;;;;;8.50;4.77;;;16.00;99.90;;;;;;5011943;28;20413;-79
2021/10/19 12:00:53;;;;;;;5.87;4.53;;;16.10;99.50;;;;;;5028053;28;20436;-76
2021/10/19 12:03:18;;;;;;;5.30;4.13;;;16.10;99.20;;;;;;5029066;28;20406;-76
2021/10/19 12:05:45;;;;;;;6.80;3.97;;;16.10;99.20;;;;;;5030183;28;20159;-76
2021/10/19 12:08:16;;;;;;;4.30;3.90;;;16.10;99.10;;;;;;5032064;28;20222;-77
2021/10/19 12:11:05;;;;;;;5.83;4.67;;;16.10;99.00;;;;;;5028017;28;20441;-77
2021/10/19 12:13:31;;;;;;;6.10;4.53;;;16.10;99.10;;;;;;5031750;28;20417;-78
2021/10/19 12:15:57;;;;;;;6.23;5.37;;;16.10;98.90;;;;;;5026655;28;20465;-78
2021/10/19 12:18:22;;;;;;;5.97;5.20;;;16.10;99.00;;;;;;5024062;28;20159;-75
2021/10/19 12:20:49;;;;;;;5.70;3.97;;;16.20;99.20;;;;;;5023063;28;20191;-80
2021/10/19 12:23:17;;;;;;;5.33;4.23;;;16.20;99.00;;;;;;5023955;28;20171;-76
2021/10/19 12:25:48;;;;;;;5.67;3.70;;;16.20;98.80;;;;;;5021817;28;20410;-78
2021/10/19 12:28:20;;;;;;;5.40;4.33;;;16.20;98.90;;;;;;5024535;28;20432;-79
2021/10/19 12:30:47;;;;;;;9.93;5.93;;;16.10;98.80;;;;;;5024092;28;20434;-76
2021/10/19 12:33:21;;;;;;;7.53;4.00;;;16.10;98.90;;;;;;5026204;28;20418;-78